Time;durP1;ratioP1;P1;durP2;ratioP2;P2;SDS_P1;SDS_P2;PMS_P1;PMS_P2;Temp;Humidity;BMP_temperature;BMP_pressure;BME280_temperature;BME280_humidity;BME280_pressure;Samples;Min_cycle;Max_cycle;Signal;HPM_P1;HPM_P2
2021/12/14 00:01:19;;;;;;;9.18;3.60;;;8.90;99.90;;;;;;5015932;28;20033;-60
2021/12/14 00:03:47;;;;;;;5.85;3.90;;;9.10;99.90;;;;;;5014486;28;20022;-57
2021/12/14 00:06:15;;;;;;;11.65;4.03;;;9.10;99.90;;;;;;5015849;28;20022;-60
2021/12/14 00:08:53;;;;;;;6.43;3.80;;;9.30;99.90;;;;;;5015494;28;20048;-59
2021/12/14 00:16:43;;;;;;;6.45;3.88;;;9.30;99.90;;;;;;5015643;28;20053;-57
2021/12/14 00:19:09;;;;;;;7.07;4.20;;;9.50;99.90;;;;;;5015524;28;20026;-59
2021/12/14 00:21:36;;;;;;;7.68;4.55;;;9.50;99.90;;;;;;5014286;28;20030;-59
2021/12/14 00:24:10;;;;;;;8.68;4.55;;;9.50;99.90;;;;;;5014070;28;20022;-59
2021/12/14 00:26:41;;;;;;;9.13;5.13;;;9.60;99.90;;;;;;5013966;28;20022;-59
2021/12/14 00:29:09;;;;;;;9.30;4.65;;;9.60;99.90;;;;;;5015405;28;20022;-59
2021/12/14 00:31:37;;;;;;;8.40;5.03;;;9.70;99.90;;;;;;5015049;28;20062;-59
2021/12/14 00:34:05;;;;;;;8.13;4.70;;;9.60;99.90;;;;;;5014141;28;20029;-60
2021/12/14 00:36:30;;;;;;;7.10;3.90;;;9.70;99.90;;;;;;5015074;28;20490;-60
2021/12/14 00:38:57;;;;;;;6.15;3.97;;;9.70;99.90;;;;;;5015192;28;20077;-60
2021/12/14 00:41:30;;;;;;;8.02;3.90;;;9.70;99.90;;;;;;5013769;28;20081;-60
2021/12/14 00:43:56;;;;;;;11.30;4.75;;;9.70;99.90;;;;;;5013674;28;20113;-58
2021/12/14 00:46:23;;;;;;;8.60;4.57;;;9.70;99.90;;;;;;5015071;28;20040;-58
2021/12/14 00:48:50;;;;;;;7.65;4.32;;;9.70;99.90;;;;;;5013493;28;20025;-58
2021/12/14 00:51:18;;;;;;;10.45;4.63;;;9.60;99.90;;;;;;5013498;28;20030;-59
2021/12/14 00:53:44;;;;;;;7.97;4.38;;;9.70;99.90;;;;;;5013451;28;20059;-60
2021/12/14 00:56:12;;;;;;;9.10;4.30;;;9.80;99.90;;;;;;5014171;28;20103;-60
2021/12/14 00:58:41;;;;;;;6.22;4.30;;;9.80;99.90;;;;;;5013297;28;20073;-60
2021/12/14 01:01:15;;;;;;;8.32;4.30;;;9.90;99.90;;;;;;5014435;28;20041;-59
2021/12/14 01:03:45;;;;;;;6.03;4.05;;;10.00;99.90;;;;;;5014534;28;20033;-60
2021/12/14 01:06:11;;;;;;;6.85;4.15;;;10.00;99.90;;;;;;5014457;28;20101;-60
2021/12/14 01:08:40;;;;;;;10.25;4.38;;;10.00;99.90;;;;;;5014664;28;20469;-60
2021/12/14 01:11:17;;;;;;;7.47;4.53;;;9.90;99.90;;;;;;5013047;28;20057;-60
2021/12/14 01:13:55;;;;;;;7.47;4.32;;;9.90;99.90;;;;;;5013144;28;20053;-58
2021/12/14 01:16:34;;;;;;;10.02;4.75;;;9.90;99.90;;;;;;5013109;28;20030;-60
2021/12/14 01:19:21;;;;;;;7.15;4.35;;;9.90;99.90;;;;;;5013033;28;20036;-60
2021/12/14 01:24:52;;;;;;;;;;;9.90;99.90;;;;;;5015270;28;20088;-60
2021/12/14 01:27:15;;;;;;;10.93;4.28;;;9.90;99.90;;;;;;5014045;28;19905;-60
2021/12/14 01:29:43;;;;;;;8.50;4.18;;;10.00;99.90;;;;;;5012833;28;20025;-60
2021/12/14 01:32:10;;;;;;;7.60;4.32;;;10.00;99.90;;;;;;5013712;28;20081;-60
2021/12/14 01:34:37;;;;;;;7.25;3.92;;;10.00;99.90;;;;;;5013153;28;20096;-60
2021/12/14 01:37:09;;;;;;;7.07;3.95;;;9.90;99.90;;;;;;5014086;28;20090;-60
2021/12/14 01:42:13;;;;;;;11.32;5.40;;;9.70;99.90;;;;;;5014285;28;20037;-59
2021/12/14 01:45:10;;;;;;;9.93;5.50;;;9.70;99.90;;;;;;5013802;28;20079;-59
2021/12/14 01:47:56;;;;;;;14.38;5.18;;;9.80;99.90;;;;;;5012626;28;20033;-58
2021/12/14 01:50:29;;;;;;;11.50;5.88;;;9.80;99.90;;;;;;5013799;28;20100;-57
2021/12/14 01:52:57;;;;;;;15.45;5.68;;;9.80;99.90;;;;;;5012526;28;20025;-58
2021/12/14 01:55:27;;;;;;;11.05;6.05;;;9.60;99.90;;;;;;5012321;28;20088;-58
2021/12/14 01:57:55;;;;;;;11.27;5.63;;;9.50;99.90;;;;;;5012454;28;20116;-59
2021/12/14 02:00:34;;;;;;;10.63;5.88;;;9.50;99.90;;;;;;5013676;28;20101;-59
2021/12/14 02:03:04;;;;;;;11.15;6.00;;;9.40;99.90;;;;;;5013811;28;20037;-58
2021/12/14 02:05:43;;;;;;;10.10;5.25;;;9.40;99.90;;;;;;5014058;28;20018;-59
2021/12/14 02:08:14;;;;;;;11.68;6.28;;;9.40;99.90;;;;;;5013145;28;20030;-58
2021/12/14 02:10:41;;;;;;;9.38;5.10;;;9.20;99.90;;;;;;5012426;28;20026;-60
2021/12/14 02:13:07;;;;;;;9.60;5.53;;;9.20;99.90;;;;;;5012196;28;20125;-57
2021/12/14 02:15:38;;;;;;;11.15;6.05;;;9.20;99.90;;;;;;5012577;28;20025;-60
2021/12/14 02:18:09;;;;;;;12.32;6.60;;;9.20;99.90;;;;;;5013803;28;20556;-59
2021/12/14 02:20:38;;;;;;;14.07;6.18;;;9.20;99.90;;;;;;5012285;28;20033;-56
2021/12/14 02:23:08;;;;;;;10.57;5.95;;;9.10;99.90;;;;;;5013433;28;20014;-59
2021/12/14 02:25:34;;;;;;;10.65;5.88;;;9.10;99.90;;;;;;5013687;28;20108;-60
2021/12/14 02:28:04;;;;;;;11.93;6.82;;;9.10;99.90;;;;;;5013566;28;20060;-60
2021/12/14 02:30:32;;;;;;;11.70;6.53;;;9.10;99.90;;;;;;5013664;28;20029;-59
2021/12/14 02:33:08;;;;;;;10.50;5.93;;;9.10;99.90;;;;;;5013410;28;20125;-56
2021/12/14 02:35:35;;;;;;;20.85;8.77;;;9.00;99.90;;;;;;5012184;28;20033;-59
2021/12/14 02:38:07;;;;;;;12.27;5.95;;;9.00;99.90;;;;;;5012985;28;20022;-60
2021/12/14 02:40:56;;;;;;;11.77;6.18;;;9.10;99.90;;;;;;5012956;28;20076;-60
2021/12/14 02:43:38;;;;;;;13.77;6.65;;;9.00;99.90;;;;;;5012355;28;20386;-57
2021/12/14 02:46:12;;;;;;;13.77;6.87;;;9.00;99.90;;;;;;5012360;28;20022;-58
2021/12/14 02:48:41;;;;;;;12.80;7.03;;;9.10;99.90;;;;;;5011907;28;20272;-58
2021/12/14 02:51:10;;;;;;;13.02;6.63;;;9.00;99.90;;;;;;5011911;28;20111;-56
2021/12/14 02:53:37;;;;;;;11.77;6.68;;;9.10;99.90;;;;;;5013062;28;20098;-57
2021/12/14 02:56:09;;;;;;;9.68;5.63;;;9.00;99.90;;;;;;5013555;28;20030;-57
2021/12/14 02:58:35;;;;;;;13.05;6.88;;;9.10;99.90;;;;;;5011859;28;20393;-55
2021/12/14 03:01:01;;;;;;;16.15;7.00;;;9.10;99.90;;;;;;5013292;28;20025;-56
2021/12/14 03:03:27;;;;;;;12.98;6.22;;;9.10;99.90;;;;;;5011885;28;20092;-58
2021/12/14 03:05:53;;;;;;;15.23;6.57;;;9.10;99.90;;;;;;5012508;28;20029;-57
2021/12/14 03:08:26;;;;;;;13.27;6.35;;;9.10;99.90;;;;;;5016885;28;20065;-58
2021/12/14 03:11:10;;;;;;;13.40;6.93;;;9.10;99.90;;;;;;5016957;28;20014;-57
2021/12/14 03:13:51;;;;;;;17.40;6.50;;;9.10;99.90;;;;;;5015326;28;20026;-56
2021/12/14 03:16:24;;;;;;;10.98;6.75;;;9.10;99.90;;;;;;5016277;28;20030;-57
2021/12/14 03:18:50;;;;;;;12.13;6.43;;;9.10;99.90;;;;;;5016800;28;20022;-58
2021/12/14 03:21:24;;;;;;;15.15;7.43;;;9.10;99.90;;;;;;5015191;28;20109;-56
2021/12/14 03:23:55;;;;;;;13.25;7.13;;;9.10;99.90;;;;;;5015858;28;20028;-57
2021/12/14 03:26:25;;;;;;;15.60;7.95;;;9.10;99.90;;;;;;5016421;28;20102;-55
2021/12/14 03:28:55;;;;;;;15.70;7.65;;;9.10;99.90;;;;;;5015502;28;20030;-58
2021/12/14 03:31:26;;;;;;;14.02;8.02;;;9.20;99.90;;;;;;5015257;28;20026;-57
2021/12/14 03:34:09;;;;;;;13.23;7.68;;;9.40;99.90;;;;;;5015063;28;20036;-56
2021/12/14 03:36:42;;;;;;;15.60;8.85;;;9.60;99.90;;;;;;5015349;28;20026;-58
2021/12/14 03:39:26;;;;;;;15.77;7.80;;;9.50;99.90;;;;;;5015181;28;20121;-58
2021/12/14 03:41:57;;;;;;;17.27;8.38;;;9.50;99.90;;;;;;5014818;28;20443;-57
2021/12/14 03:44:32;;;;;;;15.47;7.37;;;9.40;99.90;;;;;;5015452;28;20022;-56
2021/12/14 03:47:06;;;;;;;15.82;8.10;;;9.40;99.90;;;;;;5016370;28;20029;-57
2021/12/14 03:49:39;;;;;;;12.60;6.70;;;9.50;99.90;;;;;;5014934;28;20025;-57
2021/12/14 03:52:10;;;;;;;16.15;7.45;;;9.60;99.90;;;;;;5014724;28;20025;-59
2021/12/14 03:54:36;;;;;;;16.52;7.82;;;9.70;99.90;;;;;;5015817;28;20037;-58
2021/12/14 03:57:02;;;;;;;14.38;8.35;;;9.70;99.90;;;;;;5014781;28;20030;-57
2021/12/14 03:59:30;;;;;;;18.48;7.90;;;9.70;99.90;;;;;;5015653;28;20062;-58
2021/12/14 04:01:58;;;;;;;14.40;6.88;;;9.70;99.90;;;;;;5015836;28;20079;-55
2021/12/14 04:04:33;;;;;;;15.45;7.65;;;9.60;99.90;;;;;;5015886;28;20018;-59
2021/12/14 04:07:01;;;;;;;13.52;6.45;;;9.70;99.90;;;;;;5014402;28;20026;-59
2021/12/14 04:09:30;;;;;;;12.50;6.57;;;9.80;99.90;;;;;;5014272;28;20030;-57
2021/12/14 04:11:57;;;;;;;14.52;7.22;;;9.80;99.90;;;;;;5015497;28;20025;-58
2021/12/14 04:14:28;;;;;;;14.07;6.88;;;9.80;99.90;;;;;;5014304;28;20032;-59
2021/12/14 04:16:55;;;;;;;;;;;9.70;99.90;;;;;;5014193;28;20033;-59
2021/12/14 04:19:24;;;;;;;11.15;6.00;;;9.60;99.90;;;;;;5014176;28;19944;-57
2021/12/14 04:21:52;;;;;;;12.15;6.95;;;9.60;99.90;;;;;;5013974;28;20026;-58
2021/12/14 04:24:27;;;;;;;13.70;6.90;;;9.60;99.90;;;;;;5015323;28;20093;-57
2021/12/14 04:26:55;;;;;;;9.45;5.45;;;9.50;99.90;;;;;;5015553;28;20477;-57
2021/12/14 04:29:21;;;;;;;9.10;4.90;;;9.60;99.90;;;;;;5013892;28;20117;-58
2021/12/14 04:31:49;;;;;;;10.02;5.35;;;9.60;99.90;;;;;;5014249;28;20120;-57
2021/12/14 04:34:17;;;;;;;8.82;5.00;;;9.70;99.90;;;;;;5015395;28;20022;-55
2021/12/14 04:36:51;;;;;;;10.07;5.43;;;9.70;99.90;;;;;;5015029;28;20029;-59
2021/12/14 04:53:10;;;;;;;12.05;6.32;;;9.60;99.90;;;;;;5015342;28;20129;-57
2021/12/14 04:55:37;;;;;;;15.60;7.93;;;9.60;99.90;;;;;;5015026;28;20106;-56
2021/12/14 04:58:03;;;;;;;16.38;7.60;;;9.50;99.90;;;;;;5014609;28;20026;-59
2021/12/14 05:00:44;;;;;;;17.25;8.43;;;9.50;99.90;;;;;;5013297;28;20026;-59
2021/12/14 05:03:25;;;;;;;17.80;8.75;;;9.50;99.90;;;;;;5014594;28;20070;-56
2021/12/14 05:06:00;;;;;;;17.15;8.10;;;9.40;99.90;;;;;;5014568;28;20014;-57
2021/12/14 05:11:05;;;;;;;17.77;9.02;;;9.30;99.90;;;;;;5015033;28;20034;-56
2021/12/14 05:13:36;;;;;;;14.65;7.88;;;9.20;99.90;;;;;;5014399;28;20025;-57
2021/12/14 05:16:03;;;;;;;20.02;8.75;;;9.20;99.90;;;;;;5013113;28;20025;-58
2021/12/14 05:18:29;;;;;;;19.70;8.73;;;9.10;99.90;;;;;;5014210;28;20018;-58
2021/12/14 05:20:55;;;;;;;14.70;7.43;;;9.10;99.90;;;;;;5012954;28;20120;-56
2021/12/14 05:23:25;;;;;;;20.67;9.65;;;9.00;99.90;;;;;;5012962;28;20163;-56
2021/12/14 05:25:51;;;;;;;22.13;10.02;;;9.00;99.90;;;;;;5014065;28;20038;-54
2021/12/14 05:28:20;;;;;;;16.35;8.48;;;8.80;99.90;;;;;;5013503;28;20100;-59
2021/12/14 05:30:49;;;;;;;24.77;10.32;;;8.70;99.90;;;;;;5013559;28;20057;-58
2021/12/14 05:33:19;;;;;;;25.00;11.55;;;8.90;99.90;;;;;;5014084;28;20091;-57
2021/12/14 05:35:47;;;;;;;24.55;11.38;;;8.90;99.90;;;;;;5012680;28;20029;-56
2021/12/14 05:38:18;;;;;;;21.42;10.93;;;9.00;99.90;;;;;;5012666;28;20057;-58
2021/12/14 05:43:28;;;;;;;25.88;12.23;;;9.20;99.90;;;;;;5014292;28;20101;-57
2021/12/14 05:45:58;;;;;;;28.67;12.75;;;9.10;99.90;;;;;;5013407;28;20029;-58
2021/12/14 05:48:31;;;;;;;27.45;13.43;;;9.00;99.90;;;;;;5012847;28;20052;-58
2021/12/14 05:51:00;;;;;;;29.95;14.13;;;9.00;99.90;;;;;;5012712;28;20093;-59
2021/12/14 05:53:35;;;;;;;30.75;13.13;;;9.00;99.90;;;;;;5014340;28;20034;-59
2021/12/14 05:56:06;;;;;;;32.33;13.45;;;9.00;99.90;;;;;;5014536;28;20048;-59
2021/12/14 05:58:32;;;;;;;32.25;13.25;;;9.00;99.90;;;;;;5012363;28;20116;-58
2021/12/14 06:01:04;;;;;;;29.15;14.65;;;8.80;99.90;;;;;;5012331;28;20026;-56
2021/12/14 06:03:38;;;;;;;33.40;13.70;;;8.50;99.90;;;;;;5013669;28;20018;-57
2021/12/14 06:06:04;;;;;;;30.30;12.85;;;8.60;99.90;;;;;;5013639;28;20018;-58
2021/12/14 06:08:33;;;;;;;28.50;13.10;;;8.70;99.90;;;;;;5012539;28;20384;-59
2021/12/14 06:11:00;;;;;;;31.38;14.52;;;8.80;99.90;;;;;;5013142;28;20032;-58
2021/12/14 06:13:44;;;;;;;30.33;13.55;;;8.80;99.90;;;;;;5012326;28;20030;-55
2021/12/14 06:16:36;;;;;;;26.85;12.50;;;8.80;99.90;;;;;;5013473;28;20025;-59
2021/12/14 06:19:26;;;;;;;28.40;13.20;;;9.00;99.90;;;;;;5012346;28;20038;-58
2021/12/14 06:21:56;;;;;;;31.95;13.93;;;9.00;99.90;;;;;;5014011;28;20026;-58
2021/12/14 06:24:24;;;;;;;35.95;16.90;;;8.90;99.90;;;;;;5014037;28;20014;-59
2021/12/14 06:26:54;;;;;;;28.27;13.05;;;9.00;99.90;;;;;;5012219;28;20022;-58
2021/12/14 06:29:26;;;;;;;31.63;13.93;;;9.00;99.90;;;;;;5013952;28;20034;-59
2021/12/14 06:31:53;;;;;;;27.63;11.98;;;9.00;99.90;;;;;;5013648;28;20026;-58
2021/12/14 06:34:27;;;;;;;25.52;12.43;;;9.00;99.90;;;;;;5013667;28;20022;-57
2021/12/14 06:40:07;;;;;;;26.95;12.32;;;9.10;99.90;;;;;;5013864;28;20034;-59
2021/12/14 06:42:36;;;;;;;29.73;13.05;;;9.00;99.90;;;;;;5017249;28;20065;-58
2021/12/14 06:45:29;;;;;;;29.98;13.73;;;9.00;99.90;;;;;;5017399;28;20025;-58
2021/12/14 06:48:05;;;;;;;35.00;15.35;;;9.00;99.90;;;;;;5014074;28;20034;-58
2021/12/14 06:50:38;;;;;;;29.17;13.13;;;9.00;99.90;;;;;;5017380;28;20014;-59
2021/12/14 06:53:10;;;;;;;28.75;13.07;;;9.00;99.90;;;;;;5033410;28;20022;-59
2021/12/14 06:55:37;;;;;;;32.45;13.07;;;9.00;99.90;;;;;;5017531;28;20030;-58
2021/12/14 06:58:22;;;;;;;26.58;12.68;;;9.00;99.90;;;;;;5015884;28;20029;-55
2021/12/14 07:03:16;;;;;;;34.83;14.50;;;8.90;99.90;;;;;;5035749;28;20044;-53
2021/12/14 07:05:47;;;;;;;29.23;14.13;;;8.90;99.90;;;;;;5036987;28;20017;-52
2021/12/14 07:08:17;;;;;;;40.45;17.02;;;8.90;99.90;;;;;;5036248;28;20026;-50
2021/12/14 07:10:43;;;;;;;52.60;21.00;;;8.90;99.90;;;;;;5036264;28;20067;-51
2021/12/14 07:13:12;;;;;;;39.20;17.50;;;8.90;99.90;;;;;;5016746;28;20056;-49
2021/12/14 07:15:38;;;;;;;37.70;17.13;;;8.90;99.90;;;;;;5015447;28;20026;-53
2021/12/14 07:18:05;;;;;;;39.28;17.08;;;8.90;99.90;;;;;;5015645;28;20022;-54
2021/12/14 07:20:43;;;;;;;41.05;16.60;;;8.90;99.90;;;;;;5015494;28;20032;-56
2021/12/14 07:23:28;;;;;;;41.92;17.90;;;9.00;99.90;;;;;;5016778;28;20046;-53
2021/12/14 07:26:02;;;;;;;29.98;13.98;;;9.00;99.90;;;;;;5016738;28;20028;-52
2021/12/14 07:28:43;;;;;;;29.50;12.20;;;9.00;99.90;;;;;;5016320;28;20076;-52
2021/12/14 07:31:23;;;;;;;26.13;12.25;;;9.00;99.90;;;;;;5016363;28;20045;-53
2021/12/14 07:33:53;;;;;;;25.30;11.52;;;9.10;99.90;;;;;;5015182;28;20112;-53
2021/12/14 07:36:28;;;;;;;29.90;12.55;;;9.10;99.90;;;;;;5015108;28;20022;-53
2021/12/14 07:39:04;;;;;;;23.10;10.43;;;9.10;99.90;;;;;;5014939;28;20064;-54
2021/12/14 07:41:31;;;;;;;24.23;10.75;;;9.20;99.90;;;;;;5016436;28;20030;-53
2021/12/14 07:44:03;;;;;;;24.83;11.60;;;9.20;99.90;;;;;;5016168;28;20022;-51
2021/12/14 07:46:38;;;;;;;22.50;11.10;;;9.30;99.90;;;;;;5016508;28;20018;-49
2021/12/14 07:49:22;;;;;;;26.50;12.45;;;9.20;99.90;;;;;;5016268;28;20056;-56
2021/12/14 07:51:52;;;;;;;21.05;10.05;;;9.20;99.90;;;;;;5014581;28;20025;-52
2021/12/14 07:54:25;;;;;;;21.95;10.82;;;9.20;99.90;;;;;;5014709;28;20120;-52
2021/12/14 07:57:13;;;;;;;19.98;10.07;;;9.30;99.90;;;;;;5014634;28;20041;-55
2021/12/14 07:59:45;;;;;;;18.45;9.60;;;9.40;99.90;;;;;;5014433;28;20396;-56
2021/12/14 08:02:21;;;;;;;37.08;16.17;;;9.40;99.90;;;;;;5016129;28;20060;-52
2021/12/14 08:04:51;;;;;;;43.70;18.58;;;9.40;99.90;;;;;;5015752;28;20025;-54
2021/12/14 08:07:47;;;;;;;26.52;11.82;;;9.40;99.90;;;;;;5014714;28;20025;-52
2021/12/14 08:10:17;;;;;;;30.23;13.38;;;9.40;99.90;;;;;;5013114;28;20026;-53
2021/12/14 08:12:51;;;;;;;33.45;15.65;;;9.40;99.90;;;;;;5014297;28;20037;-53
2021/12/14 08:15:31;;;;;;;33.45;15.40;;;9.40;99.90;;;;;;5014377;28;20022;-51
2021/12/14 08:18:11;;;;;;;29.80;14.35;;;9.30;99.90;;;;;;5015722;28;20018;-52
2021/12/14 08:20:55;;;;;;;24.05;12.95;;;9.30;99.90;;;;;;5014234;28;20049;-50
2021/12/14 08:23:27;;;;;;;39.75;17.23;;;9.30;99.90;;;;;;5015685;28;20022;-51
2021/12/14 08:26:00;;;;;;;36.70;14.90;;;9.30;99.90;;;;;;5014137;28;20480;-51
2021/12/14 08:28:26;;;;;;;25.10;12.18;;;9.30;99.90;;;;;;5014293;28;20053;-54
2021/12/14 08:30:57;;;;;;;25.10;11.43;;;9.40;99.90;;;;;;5015176;28;20488;-54
2021/12/14 08:33:26;;;;;;;24.48;12.52;;;9.40;99.90;;;;;;5014299;28;20053;-50
2021/12/14 08:35:55;;;;;;;22.48;11.77;;;9.40;99.90;;;;;;5014049;28;20034;-51
2021/12/14 08:38:21;;;;;;;26.25;12.18;;;9.40;99.90;;;;;;5014100;28;20068;-51
2021/12/14 08:40:52;;;;;;;26.02;12.30;;;9.40;99.90;;;;;;5014537;28;20053;-51
2021/12/14 08:43:25;;;;;;;21.60;10.90;;;9.50;99.90;;;;;;5013804;28;20476;-56
2021/12/14 08:45:57;;;;;;;24.73;11.02;;;9.50;99.90;;;;;;5013723;28;20077;-52
2021/12/14 08:48:37;;;;;;;31.23;13.55;;;9.50;99.90;;;;;;5015364;28;20022;-52
2021/12/14 08:51:13;;;;;;;20.52;10.40;;;9.50;99.90;;;;;;5013617;28;20033;-52
2021/12/14 08:53:46;;;;;;;34.13;14.85;;;9.60;99.90;;;;;;5015014;28;20061;-57
2021/12/14 08:56:13;;;;;;;28.23;13.30;;;9.60;99.90;;;;;;5014489;28;20037;-53
2021/12/14 08:58:40;;;;;;;26.92;12.15;;;9.70;99.90;;;;;;5013893;28;20025;-54
2021/12/14 09:01:12;;;;;;;25.88;12.40;;;9.70;99.90;;;;;;5014398;28;20030;-55
2021/12/14 09:03:44;;;;;;;25.40;13.35;;;9.70;99.90;;;;;;5013533;28;20080;-53
2021/12/14 09:06:17;;;;;;;27.60;12.68;;;9.70;99.90;;;;;;5013928;28;20057;-55
2021/12/14 09:08:45;;;;;;;28.73;13.27;;;9.70;99.90;;;;;;5014484;28;20029;-55
2021/12/14 09:11:15;;;;;;;37.50;15.20;;;9.80;99.90;;;;;;5015017;28;20029;-55
2021/12/14 09:13:41;;;;;;;24.90;11.65;;;9.70;99.90;;;;;;5014842;28;20021;-56
2021/12/14 09:16:14;;;;;;;26.25;10.73;;;9.80;99.90;;;;;;5013139;28;20129;-56
2021/12/14 09:18:46;;;;;;;20.67;11.23;;;9.80;99.90;;;;;;5013470;28;20030;-52
2021/12/14 09:21:25;;;;;;;23.55;11.40;;;9.80;99.90;;;;;;5013002;28;20057;-51
2021/12/14 09:23:58;;;;;;;24.05;10.82;;;9.80;99.90;;;;;;5014354;28;20037;-57
2021/12/14 09:26:27;;;;;;;20.50;10.35;;;9.80;99.90;;;;;;5014245;28;20045;-49
2021/12/14 09:28:53;;;;;;;24.08;9.63;;;9.80;99.90;;;;;;5013051;28;20492;-51
2021/12/14 09:31:23;;;;;;;22.85;10.82;;;9.80;99.90;;;;;;5014316;28;20026;-49
2021/12/14 09:33:50;;;;;;;22.52;11.25;;;9.80;99.90;;;;;;5013203;28;20034;-52
2021/12/14 09:36:16;;;;;;;20.75;10.27;;;9.80;99.90;;;;;;5012812;28;20026;-51
2021/12/14 09:38:46;;;;;;;25.85;10.30;;;9.80;99.90;;;;;;5013912;28;20042;-51
2021/12/14 09:41:15;;;;;;;20.27;11.02;;;9.70;99.90;;;;;;5014425;28;20050;-51
2021/12/14 09:43:41;;;;;;;25.15;11.07;;;9.70;99.90;;;;;;5012811;28;20072;-51
2021/12/14 09:46:09;;;;;;;25.50;12.80;;;9.80;99.90;;;;;;5012696;28;20085;-53
2021/12/14 09:48:47;;;;;;;17.63;10.52;;;9.80;99.90;;;;;;5012644;28;20022;-49
2021/12/14 09:51:18;;;;;;;20.30;9.95;;;9.80;99.90;;;;;;5013815;28;20072;-54
2021/12/14 09:53:51;;;;;;;22.92;10.85;;;9.80;99.90;;;;;;5013943;28;20454;-50
2021/12/14 09:56:21;;;;;;;26.25;11.35;;;9.80;99.90;;;;;;5012625;28;20034;-49
2021/12/14 09:58:52;;;;;;;42.92;18.27;;;9.90;99.90;;;;;;5012583;28;20026;-52
2021/12/14 10:01:25;;;;;;;25.23;11.95;;;9.90;99.90;;;;;;5013056;28;20037;-51
2021/12/14 10:03:54;;;;;;;22.42;10.13;;;9.90;99.90;;;;;;5012489;28;20045;-54
2021/12/14 10:06:25;;;;;;;28.63;12.77;;;9.90;99.90;;;;;;5013668;28;20026;-49
2021/12/14 10:08:58;;;;;;;23.23;10.88;;;9.90;99.90;;;;;;5013921;28;20484;-50
2021/12/14 10:14:37;;;;;;;30.40;15.38;;;9.90;99.90;;;;;;5013356;28;20029;-48
2021/12/14 10:17:07;;;;;;;29.20;12.82;;;9.90;99.90;;;;;;5013683;28;20026;-52
2021/12/14 10:19:34;;;;;;;23.13;11.82;;;9.90;99.90;;;;;;5013959;28;20049;-50
2021/12/14 10:22:55;;;;;;;21.50;10.95;;;9.90;99.90;;;;;;5013422;28;20097;-50
2021/12/14 10:25:25;;;;;;;27.20;10.77;;;9.90;99.90;;;;;;5012410;28;20026;-51
2021/12/14 10:27:53;;;;;;;22.20;10.43;;;10.00;99.90;;;;;;5012574;28;20045;-52
2021/12/14 10:30:47;;;;;;;20.58;10.13;;;10.10;99.90;;;;;;5013664;28;20018;-51
2021/12/14 10:33:13;;;;;;;20.15;10.27;;;10.20;99.90;;;;;;5013606;28;20049;-51
2021/12/14 10:35:47;;;;;;;21.13;10.77;;;10.20;99.90;;;;;;5013547;28;20018;-52
2021/12/14 10:38:25;;;;;;;21.98;10.98;;;10.20;99.90;;;;;;5013528;28;20014;-49
2021/12/14 10:43:59;;;;;;;27.40;11.77;;;10.30;99.90;;;;;;5013904;28;20049;-53
2021/12/14 10:46:33;;;;;;;22.08;10.38;;;10.30;99.90;;;;;;5012292;28;20415;-51
2021/12/14 10:48:59;;;;;;;21.00;9.75;;;10.30;99.90;;;;;;5013606;28;20018;-49
2021/12/14 10:51:29;;;;;;;19.35;10.00;;;10.30;99.90;;;;;;5013151;28;20092;-50
2021/12/14 10:53:57;;;;;;;20.75;9.32;;;10.40;99.90;;;;;;5013671;28;20026;-52
2021/12/14 10:56:28;;;;;;;21.65;10.15;;;10.40;99.90;;;;;;5012854;28;20084;-49
2021/12/14 10:58:58;;;;;;;22.33;10.38;;;10.40;99.90;;;;;;5013576;28;20049;-49
2021/12/14 11:01:32;;;;;;;21.92;10.98;;;10.40;99.90;;;;;;5011778;28;20041;-51
2021/12/14 11:04:07;;;;;;;37.08;16.95;;;10.40;99.90;;;;;;5012078;28;20026;-52
2021/12/14 11:06:36;;;;;;;27.08;12.25;;;10.40;99.90;;;;;;5013486;28;20022;-50
2021/12/14 11:11:49;;;;;;;19.93;9.97;;;10.40;99.90;;;;;;5013452;28;20049;-49
2021/12/14 11:14:19;;;;;;;25.25;9.90;;;10.40;99.90;;;;;;5013491;28;20026;-50
2021/12/14 11:19:38;;;;;;;22.63;10.35;;;10.50;99.90;;;;;;5013405;28;20079;-49
2021/12/14 11:22:23;;;;;;;22.25;10.77;;;10.50;99.90;;;;;;5012995;28;20026;-48
2021/12/14 11:25:06;;;;;;;18.33;8.43;;;10.50;99.90;;;;;;5012698;28;20029;-49
2021/12/14 11:27:35;;;;;;;19.85;9.13;;;10.60;99.90;;;;;;5015103;28;20034;-50
2021/12/14 11:30:22;;;;;;;16.70;8.98;;;10.60;99.90;;;;;;5015995;28;20350;-48
2021/12/14 11:33:01;;;;;;;15.93;8.32;;;10.60;99.90;;;;;;5015300;28;20550;-49
2021/12/14 11:35:28;;;;;;;20.13;9.90;;;10.60;99.90;;;;;;5015246;28;20033;-49
2021/12/14 11:37:56;;;;;;;21.35;9.95;;;10.60;99.90;;;;;;5015041;28;20026;-52
2021/12/14 11:40:25;;;;;;;15.80;8.05;;;10.70;99.90;;;;;;5016200;28;20400;-53
2021/12/14 11:42:52;;;;;;;17.23;7.93;;;10.70;99.90;;;;;;5015123;28;20030;-51
2021/12/14 11:45:21;;;;;;;16.70;8.30;;;10.70;99.90;;;;;;5014921;28;20018;-52
2021/12/14 11:47:54;;;;;;;17.13;9.25;;;10.70;99.90;;;;;;5014874;28;20412;-52
2021/12/14 11:50:30;;;;;;;16.40;9.38;;;10.70;99.90;;;;;;5015316;28;20025;-50
2021/12/14 11:53:14;;;;;;;16.10;8.20;;;10.70;99.90;;;;;;5015056;28;20029;-54
2021/12/14 11:55:48;;;;;;;31.30;13.20;;;10.70;99.90;;;;;;5014758;28;20034;-54
2021/12/14 11:58:28;;;;;;;23.40;10.00;;;10.70;99.90;;;;;;5016108;28;20029;-53
2021/12/14 12:01:06;;;;;;;25.50;9.90;;;10.70;99.90;;;;;;5014417;28;20484;-50
2021/12/14 12:03:37;;;;;;;20.95;8.82;;;10.70;99.90;;;;;;5016186;28;20029;-52
2021/12/14 12:06:07;;;;;;;22.90;9.95;;;10.70;99.90;;;;;;5014475;28;20029;-52
2021/12/14 12:11:22;;;;;;;17.58;7.78;;;10.60;99.90;;;;;;5015949;28;20033;-52
2021/12/14 12:13:48;;;;;;;16.75;7.45;;;10.60;99.90;;;;;;5015641;28;20018;-56
2021/12/14 12:16:21;;;;;;;13.70;7.50;;;10.60;99.90;;;;;;5015621;28;20018;-50
2021/12/14 12:19:08;;;;;;;17.40;9.27;;;10.60;99.90;;;;;;5014426;28;20111;-54
2021/12/14 12:21:36;;;;;;;24.52;12.82;;;10.60;99.90;;;;;;5015688;28;20118;-53
2021/12/14 12:24:03;;;;;;;13.95;7.53;;;10.60;99.90;;;;;;5014130;28;20109;-50
2021/12/14 12:26:30;;;;;;;15.25;7.25;;;10.60;99.90;;;;;;5014107;28;20025;-51
2021/12/14 12:29:02;;;;;;;14.00;7.85;;;10.60;99.90;;;;;;5015388;28;20384;-51
2021/12/14 12:31:34;;;;;;;14.45;8.82;;;10.70;99.90;;;;;;5015831;28;20529;-50
2021/12/14 12:34:01;;;;;;;17.25;7.60;;;10.70;99.90;;;;;;5015344;28;20026;-53
2021/12/14 12:36:35;;;;;;;12.90;7.13;;;10.70;99.90;;;;;;5015361;28;20041;-51
2021/12/14 12:39:13;;;;;;;11.60;6.50;;;10.70;99.90;;;;;;5014310;28;20025;-48
2021/12/14 12:41:51;;;;;;;11.73;6.68;;;10.70;99.90;;;;;;5013677;28;20037;-48
2021/12/14 12:44:29;;;;;;;13.00;6.43;;;10.70;99.90;;;;;;5015070;28;20017;-52
2021/12/14 12:46:58;;;;;;;11.35;6.00;;;10.70;99.90;;;;;;5015616;28;20113;-56
2021/12/14 12:49:28;;;;;;;11.50;5.85;;;10.70;99.90;;;;;;5013661;28;20029;-49
2021/12/14 12:52:00;;;;;;;12.50;6.72;;;10.70;99.90;;;;;;5013634;28;20026;-51
2021/12/14 12:54:35;;;;;;;;;;;10.70;99.90;;;;;;5014623;28;20022;-52
2021/12/14 12:57:43;;;;;;;12.02;5.95;;;10.70;99.90;;;;;;5014762;28;19928;-51
2021/12/14 13:00:17;;;;;;;12.75;5.80;;;10.60;99.90;;;;;;5014496;28;20054;-52
2021/12/14 13:03:00;;;;;;;15.52;6.22;;;10.60;99.90;;;;;;5013599;28;20029;-52
2021/12/14 13:05:29;;;;;;;14.15;6.72;;;10.50;99.90;;;;;;5015023;28;20049;-50
2021/12/14 13:08:36;;;;;;;23.60;7.05;;;10.50;99.90;;;;;;5014563;28;20067;-56
2021/12/14 13:11:17;;;;;;;12.70;6.45;;;10.50;99.90;;;;;;5014605;28;20028;-53
2021/12/14 13:13:46;;;;;;;;;;;10.50;99.90;;;;;;5014433;28;20029;-56
2021/12/14 13:16:28;;;;;;;11.05;5.10;;;10.50;99.90;;;;;;5013228;28;20375;-50
2021/12/14 13:19:16;;;;;;;17.65;6.28;;;10.50;99.90;;;;;;5014039;28;20025;-54
2021/12/14 13:21:49;;;;;;;14.93;5.70;;;10.50;99.90;;;;;;5013190;28;20088;-52
2021/12/14 13:24:26;;;;;;;16.83;6.30;;;10.50;99.90;;;;;;5014338;28;20026;-52
2021/12/14 13:27:01;;;;;;;15.93;6.15;;;10.50;99.90;;;;;;5013197;28;20033;-50
2021/12/14 13:29:50;;;;;;;13.20;5.95;;;10.50;99.90;;;;;;5014175;28;20030;-51
2021/12/14 13:32:15;;;;;;;15.05;6.38;;;10.50;99.90;;;;;;5013563;28;20038;-50
2021/12/14 13:35:06;;;;;;;12.43;5.78;;;10.50;99.90;;;;;;5014532;28;20037;-48
2021/12/14 13:37:38;;;;;;;12.43;5.05;;;10.50;99.90;;;;;;5013150;28;20026;-51
2021/12/14 13:40:19;;;;;;;13.00;6.28;;;10.60;99.90;;;;;;5013915;28;20034;-49
2021/12/14 13:42:52;;;;;;;13.23;5.68;;;10.60;99.90;;;;;;5012610;28;20030;-52
2021/12/14 13:45:23;;;;;;;14.68;5.85;;;10.50;99.90;;;;;;5014177;28;20037;-51
2021/12/14 13:47:50;;;;;;;16.15;7.78;;;10.40;99.90;;;;;;5013983;28;20037;-52
2021/12/14 13:53:39;;;;;;;23.90;7.53;;;10.40;99.90;;;;;;5014288;28;20132;-50
2021/12/14 13:56:09;;;;;;;14.13;6.50;;;10.40;99.90;;;;;;5012634;28;20018;-51
2021/12/14 13:58:38;;;;;;;12.82;5.95;;;10.30;99.90;;;;;;5013774;28;20108;-52
2021/12/14 14:01:12;;;;;;;14.23;6.90;;;10.30;99.90;;;;;;5009308;28;20041;-50
2021/12/14 14:03:41;;;;;;;11.23;5.90;;;10.40;99.90;;;;;;4992836;28;20376;-51